Time;durP1;ratioP1;P1;durP2;ratioP2;P2;SDS_P1;SDS_P2;PMS_P1;PMS_P2;Temp;Humidity;BMP_temperature;BMP_pressure;BME280_temperature;BME280_humidity;BME280_pressure;Samples;Min_cycle;Max_cycle;Signal;HPM_P1;HPM_P2
2022/05/26 00:00:08;;;;;;;;;;;;;;;19.88;78.56;99852.31;5009106;28;20027;-82
2022/05/26 00:02:33;;;;;;;;;;;;;;;19.96;78.03;99850.09;5007227;28;19921;-82
2022/05/26 00:04:58;;;;;;;;;;;;;;;19.93;77.87;99849.41;5007274;28;20371;-81
2022/05/26 00:07:24;;;;;;;;;;;;;;;19.92;78.04;99861.03;5009300;28;19921;-81
2022/05/26 00:09:49;;;;;;;;;;;;;;;19.82;78.31;99856.16;5007951;28;19921;-81
2022/05/26 00:12:16;;;;;;;;;;;;;;;19.91;78.16;99848.59;5008637;28;19928;-81
2022/05/26 00:14:43;;;;;;;;;;;;;;;19.84;78.31;99856.94;4990331;28;19972;-81
2022/05/26 00:17:08;;;;;;;;;;;;;;;19.92;77.69;99855.69;5008494;28;20379;-82
2022/05/26 00:19:34;;;;;;;;;;;;;;;19.89;77.94;99855.84;5007915;28;19913;-82
2022/05/26 00:21:59;;;;;;;;;;;;;;;19.83;78.35;99855.22;5008542;28;19921;-81
2022/05/26 00:24:24;;;;;;;;;;;;;;;19.55;80.46;99860.19;5007651;28;19924;-82
2022/05/26 00:26:50;;;;;;;;;;;;;;;19.68;80.08;99853.28;4975021;28;19921;-81
2022/05/26 00:29:15;;;;;;;;;;;;;;;19.64;80.57;99859.72;5008027;28;19971;-81
2022/05/26 00:31:41;;;;;;;;;;;;;;;19.72;79.64;99862.88;5006589;28;19917;-81
2022/05/26 00:34:06;;;;;;;;;;;;;;;19.61;79.80;99859.88;5008384;28;19917;-81
2022/05/26 00:36:37;;;;;;;;;;;;;;;19.63;80.38;99852.63;5007347;28;20300;-81
2022/05/26 00:39:06;;;;;;;;;;;;;;;19.64;79.81;99843.66;5008520;28;20350;-81
2022/05/26 00:41:32;;;;;;;;;;;;;;;19.63;79.89;99831.22;5007686;28;19917;-80
2022/05/26 00:43:57;;;;;;;;;;;;;;;19.56;80.41;99843.19;5008201;28;19925;-81
2022/05/26 00:46:26;;;;;;;;;;;;;;;19.43;80.45;99851.84;5007925;28;19925;-81
2022/05/26 00:48:54;;;;;;;;;;;;;;;19.54;80.05;99855.75;5007418;28;20374;-82
2022/05/26 00:51:23;;;;;;;;;;;;;;;19.59;79.47;99846.56;5007798;28;19921;-82
2022/05/26 00:53:54;;;;;;;;;;;;;;;19.62;79.43;99854.44;5007529;28;19970;-81
2022/05/26 00:56:25;;;;;;;;;;;;;;;19.60;79.29;99850.09;5007978;28;19924;-81
2022/05/26 00:58:54;;;;;;;;;;;;;;;19.61;78.75;99854.53;5006995;28;19921;-81
2022/05/26 01:01:19;;;;;;;;;;;;;;;19.66;78.46;99861.41;4989563;28;19928;-81
2022/05/26 01:03:49;;;;;;;;;;;;;;;19.62;78.53;99862.47;5006994;28;19917;-82
2022/05/26 01:06:20;;;;;;;;;;;;;;;19.55;78.43;99860.19;5006572;28;19921;-81
2022/05/26 01:08:48;;;;;;;;;;;;;;;19.59;78.07;99848.41;5007748;28;19917;-81
2022/05/26 01:11:14;;;;;;;;;;;;;;;19.39;78.22;99842.22;4999361;28;19976;-80
2022/05/26 01:13:44;;;;;;;;;;;;;;;19.53;76.92;99840.69;4989222;28;19944;-81
2022/05/26 01:16:24;;;;;;;;;;;;;;;19.46;76.80;99837.41;5007070;28;19971;-81
2022/05/26 01:18:56;;;;;;;;;;;;;;;19.40;77.22;99845.75;4987540;28;19949;-81
2022/05/26 01:21:33;;;;;;;;;;;;;;;19.34;77.01;99836.25;4997898;28;19929;-80
2022/05/26 01:24:04;;;;;;;;;;;;;;;19.33;77.20;99840.69;5007606;28;19943;-80
2022/05/26 01:26:50;;;;;;;;;;;;;;;19.28;76.82;99841.88;5006855;28;19925;-80
2022/05/26 01:29:29;;;;;;;;;;;;;;;19.29;76.56;99843.59;5006345;28;19921;-80
2022/05/26 01:31:54;;;;;;;;;;;;;;;19.23;76.85;99843.91;5006730;28;19918;-80
2022/05/26 01:34:40;;;;;;;;;;;;;;;19.20;76.74;99839.59;5006070;28;19932;-80
2022/05/26 01:37:05;;;;;;;;;;;;;;;19.18;76.25;99829.88;5007038;28;20450;-80
2022/05/26 01:39:37;;;;;;;;;;;;;;;18.96;77.66;99844.28;5006718;28;19943;-81
2022/05/26 01:42:02;;;;;;;;;;;;;;;19.03;77.11;99850.19;5006916;28;19925;-81
2022/05/26 01:44:30;;;;;;;;;;;;;;;19.01;76.69;99847.59;5006092;28;19976;-80
2022/05/26 01:46:59;;;;;;;;;;;;;;;19.06;77.03;99850.94;5007585;28;20402;-81
2022/05/26 01:49:30;;;;;;;;;;;;;;;18.88;77.60;99841.13;5010641;28;20012;-82
2022/05/26 01:52:16;;;;;;;;;;;;;;;18.99;77.21;99849.50;4992715;28;19918;-81
2022/05/26 01:55:05;;;;;;;;;;;;;;;18.89;77.57;99846.41;4977266;28;20330;-81
2022/05/26 01:57:33;;;;;;;;;;;;;;;18.82;77.94;99844.03;5010683;28;19921;-81
2022/05/26 02:00:05;;;;;;;;;;;;;;;18.89;77.29;99841.03;5011283;28;19924;-81
2022/05/26 02:02:34;;;;;;;;;;;;;;;18.79;77.71;99851.25;5009380;28;19972;-81
2022/05/26 02:05:23;;;;;;;;;;;;;;;18.74;77.76;99842.59;5010887;28;19917;-81
2022/05/26 02:07:48;;;;;;;;;;;;;;;18.78;76.99;99835.28;4987339;28;19965;-81
2022/05/26 02:10:20;;;;;;;;;;;;;;;18.76;76.42;99838.03;5011564;28;20713;-80
2022/05/26 02:12:48;;;;;;;;;;;;;;;18.71;76.33;99839.19;5007321;28;19922;-81
2022/05/26 02:15:18;;;;;;;;;;;;;;;18.58;77.29;99826.41;5010578;28;19922;-81
2022/05/26 02:17:46;;;;;;;;;;;;;;;18.60;77.32;99834.34;4991431;28;19913;-81
2022/05/26 02:20:17;;;;;;;;;;;;;;;18.75;76.50;99835.44;4992384;28;19922;-81
2022/05/26 02:22:51;;;;;;;;;;;;;;;18.75;76.30;99840.78;5010942;28;19925;-82
2022/05/26 02:25:21;;;;;;;;;;;;;;;18.67;76.67;99846.47;5010556;28;20387;-81
2022/05/26 02:27:48;;;;;;;;;;;;;;;18.69;76.60;99857.97;5010490;28;19921;-80
2022/05/26 02:30:13;;;;;;;;;;;;;;;18.60;77.80;99847.72;5010491;28;19967;-80
2022/05/26 02:32:58;;;;;;;;;;;;;;;18.56;78.66;99843.44;5010593;28;20323;-80
2022/05/26 02:35:31;;;;;;;;;;;;;;;18.40;79.28;99845.94;5010346;28;19928;-81
2022/05/26 02:37:59;;;;;;;;;;;;;;;18.41;79.36;99851.22;5010618;28;19953;-81
2022/05/26 02:40:25;;;;;;;;;;;;;;;18.33;79.96;99847.16;5010483;28;19947;-81
2022/05/26 02:42:52;;;;;;;;;;;;;;;18.41;79.17;99845.88;5010122;28;20383;-81
2022/05/26 02:45:29;;;;;;;;;;;;;;;18.38;79.18;99851.34;5009668;28;20702;-81
2022/05/26 02:48:17;;;;;;;;;;;;;;;18.37;79.21;99844.25;5010520;28;19918;-81
2022/05/26 02:50:43;;;;;;;;;;;;;;;18.40;79.09;99848.63;5008323;28;19928;-80
2022/05/26 02:53:20;;;;;;;;;;;;;;;18.33;79.17;99865.84;5009396;28;19917;-82
2022/05/26 02:55:48;;;;;;;;;;;;;;;18.07;81.71;99867.84;5010528;28;19927;-80
2022/05/26 02:58:22;;;;;;;;;;;;;;;18.13;82.09;99859.56;4994528;28;19922;-81
2022/05/26 03:01:05;;;;;;;;;;;;;;;18.12;82.94;99862.28;4996396;28;19949;-80
2022/05/26 03:03:44;;;;;;;;;;;;;;;18.17;83.14;99866.50;5009345;28;20020;-80
2022/05/26 03:06:23;;;;;;;;;;;;;;;18.39;82.01;99870.91;5009236;28;20008;-80
2022/05/26 03:08:49;;;;;;;;;;;;;;;18.45;81.55;99861.75;5011032;28;19928;-79
2022/05/26 03:11:19;;;;;;;;;;;;;;;18.51;81.22;99857.00;5008947;28;19921;-80
2022/05/26 03:13:44;;;;;;;;;;;;;;;18.50;81.13;99849.91;5003911;28;20007;-80
2022/05/26 03:16:11;;;;;;;;;;;;;;;18.28;81.71;99855.34;5003362;28;20013;-80
2022/05/26 03:18:36;;;;;;;;;;;;;;;18.40;81.78;99860.16;5006475;28;19923;-79
2022/05/26 03:21:03;;;;;;;;;;;;;;;18.54;80.63;99859.53;4991241;28;20319;-80
2022/05/26 03:23:28;;;;;;;;;;;;;;;18.53;80.40;99865.78;4989422;28;19925;-79
2022/05/26 03:25:55;;;;;;;;;;;;;;;18.53;80.51;99867.63;4998450;28;20319;-79
2022/05/26 03:28:20;;;;;;;;;;;;;;;18.51;80.17;99873.03;5008930;28;20331;-80
2022/05/26 03:30:45;;;;;;;;;;;;;;;18.50;80.83;99870.41;4991907;28;19917;-80
2022/05/26 03:33:11;;;;;;;;;;;;;;;18.63;80.90;99868.94;5007917;28;19926;-80
2022/05/26 03:41:11;;;;;;;;;;;;;;;19.01;79.96;99871.66;4984362;28;19922;-81
2022/05/26 03:43:42;;;;;;;;;;;;;;;18.88;80.88;99862.50;5009404;28;20003;-80
2022/05/26 03:46:08;;;;;;;;;;;;;;;18.95;80.34;99856.78;5009252;28;20658;-80
2022/05/26 03:48:33;;;;;;;;;;;;;;;19.13;79.44;99849.69;5008623;28;20024;-78
2022/05/26 03:50:59;;;;;;;;;;;;;;;19.11;79.26;99862.28;5008915;28;20008;-80
2022/05/26 03:53:25;;;;;;;;;;;;;;;19.12;79.02;99858.66;5009324;28;20399;-80
2022/05/26 03:55:50;;;;;;;;;;;;;;;19.09;79.37;99860.59;5009259;28;20067;-80
2022/05/26 03:58:17;;;;;;;;;;;;;;;19.10;78.94;99867.69;5009351;28;19960;-80
2022/05/26 04:00:42;;;;;;;;;;;;;;;19.09;79.44;99864.16;5008639;28;19924;-81
2022/05/26 04:03:08;;;;;;;;;;;;;;;19.23;79.34;99854.59;4990969;28;19917;-80
2022/05/26 04:05:33;;;;;;;;;;;;;;;19.19;80.78;99855.69;5007974;28;19917;-80
2022/05/26 04:07:58;;;;;;;;;;;;;;;19.27;80.98;99857.03;5009350;28;20003;-80
2022/05/26 04:10:24;;;;;;;;;;;;;;;19.20;83.09;99857.41;5007361;28;19975;-81
2022/05/26 04:12:49;;;;;;;;;;;;;;;19.35;82.74;99866.50;5008979;28;20003;-79
2022/05/26 04:15:15;;;;;;;;;;;;;;;19.46;83.48;99866.84;5007586;28;19953;-79
2022/05/26 04:17:41;;;;;;;;;;;;;;;19.77;81.79;99868.91;4990546;28;19929;-79
2022/05/26 04:20:07;;;;;;;;;;;;;;;19.72;82.14;99854.84;5013684;28;19921;-81
2022/05/26 04:22:33;;;;;;;;;;;;;;;20.01;80.23;99853.41;5004965;28;20375;-81
2022/05/26 04:24:59;;;;;;;;;;;;;;;19.48;81.66;99881.03;5008170;28;19928;-80
2022/05/26 04:27:26;;;;;;;;;;;;;;;19.76;81.65;99866.28;5008672;28;19917;-79
2022/05/26 04:29:52;;;;;;;;;;;;;;;20.14;79.44;99850.09;5007439;28;20299;-80
2022/05/26 04:32:17;;;;;;;;;;;;;;;20.17;79.84;99868.66;5007734;28;19957;-80
2022/05/26 04:34:45;;;;;;;;;;;;;;;20.17;79.07;99876.69;5001858;28;19956;-80
2022/05/26 04:37:11;;;;;;;;;;;;;;;19.98;81.63;99868.75;5006562;28;19928;-80
2022/05/26 04:39:36;;;;;;;;;;;;;;;20.52;79.57;99868.63;4990014;28;20315;-80
2022/05/26 04:42:03;;;;;;;;;;;;;;;20.72;78.64;99864.91;5005933;28;19925;-80
2022/05/26 04:44:33;;;;;;;;;;;;;;;20.68;78.60;99866.91;5006525;28;19921;-80
2022/05/26 04:46:59;;;;;;;;;;;;;;;20.95;77.65;99860.97;5007461;28;19917;-79
2022/05/26 04:49:24;;;;;;;;;;;;;;;20.97;77.63;99864.41;5007391;28;19928;-79
2022/05/26 04:51:49;;;;;;;;;;;;;;;21.00;77.68;99852.66;5008251;28;20326;-79
2022/05/26 04:54:16;;;;;;;;;;;;;;;21.02;76.91;99865.06;5008063;28;19909;-80
2022/05/26 04:56:41;;;;;;;;;;;;;;;21.29;75.74;99867.97;5008084;28;20016;-80
2022/05/26 04:59:07;;;;;;;;;;;;;;;21.53;75.85;99875.59;5008003;28;20363;-79
2022/05/26 05:01:32;;;;;;;;;;;;;;;21.59;75.31;99890.50;5007781;28;20450;-79
2022/05/26 05:03:57;;;;;;;;;;;;;;;21.49;75.35;99882.13;5007810;28;19918;-80
2022/05/26 05:06:23;;;;;;;;;;;;;;;21.51;74.47;99882.03;5008282;28;19924;-79
2022/05/26 05:08:48;;;;;;;;;;;;;;;21.94;73.16;99887.56;5007053;28;19922;-79
2022/05/26 05:11:13;;;;;;;;;;;;;;;22.17;73.16;99891.56;4988692;28;19917;-79
2022/05/26 05:13:39;;;;;;;;;;;;;;;22.17;71.59;99883.53;5007269;28;19921;-80
2022/05/26 05:16:08;;;;;;;;;;;;;;;22.55;69.46;99882.16;4989524;28;19921;-79
2022/05/26 05:18:34;;;;;;;;;;;;;;;22.42;68.75;99879.38;5008010;28;19914;-79
2022/05/26 05:21:04;;;;;;;;;;;;;;;22.60;68.94;99878.25;4990237;28;20375;-79
2022/05/26 05:23:30;;;;;;;;;;;;;;;22.76;67.90;99879.97;4989676;28;19917;-80
2022/05/26 05:25:57;;;;;;;;;;;;;;;22.63;68.75;99887.91;5007720;28;19967;-79
2022/05/26 05:28:34;;;;;;;;;;;;;;;22.49;66.64;99889.66;5006703;28;19927;-79
2022/05/26 05:31:02;;;;;;;;;;;;;;;22.95;67.60;99893.09;4987149;28;19921;-79
2022/05/26 05:33:34;;;;;;;;;;;;;;;23.10;65.98;99899.38;5007317;28;20020;-79
2022/05/26 05:36:04;;;;;;;;;;;;;;;22.86;68.46;99899.91;5006920;28;19947;-79
2022/05/26 05:38:31;;;;;;;;;;;;;;;22.68;67.86;99916.25;5007386;28;19967;-80
2022/05/26 05:40:56;;;;;;;;;;;;;;;22.98;67.30;99915.28;5007952;28;19918;-80
2022/05/26 05:43:21;;;;;;;;;;;;;;;23.01;66.26;99901.63;5008045;28;20449;-80
2022/05/26 05:45:47;;;;;;;;;;;;;;;23.03;65.70;99901.53;5007421;28;19930;-80
2022/05/26 05:48:12;;;;;;;;;;;;;;;23.15;65.86;99906.19;5007658;28;19983;-80
2022/05/26 05:50:37;;;;;;;;;;;;;;;23.05;67.76;99903.19;5008156;28;20825;-80
2022/05/26 05:53:03;;;;;;;;;;;;;;;23.63;66.06;99900.38;5007207;28;19913;-80
2022/05/26 05:55:29;;;;;;;;;;;;;;;23.28;65.79;99908.97;5007352;28;20284;-80
2022/05/26 05:57:55;;;;;;;;;;;;;;;23.50;64.51;99915.66;4990005;28;20371;-79
2022/05/26 06:00:20;;;;;;;;;;;;;;;23.31;63.83;99914.16;5006546;28;19922;-80
2022/05/26 06:02:45;;;;;;;;;;;;;;;23.46;65.88;99911.41;5007052;28;19921;-80
2022/05/26 06:05:11;;;;;;;;;;;;;;;23.81;63.88;99914.47;4990139;28;19917;-80
2022/05/26 06:07:39;;;;;;;;;;;;;;;23.67;63.85;99923.47;5007405;28;19918;-80
2022/05/26 06:10:06;;;;;;;;;;;;;;;24.05;62.68;99924.59;4989414;28;20354;-80
2022/05/26 06:12:31;;;;;;;;;;;;;;;23.85;63.31;99932.19;5006848;28;19967;-79
2022/05/26 06:14:56;;;;;;;;;;;;;;;23.91;64.89;99931.78;5006038;28;19964;-79
2022/05/26 06:17:22;;;;;;;;;;;;;;;23.73;64.01;99904.22;5007077;28;19917;-81
2022/05/26 06:19:47;;;;;;;;;;;;;;;23.82;62.63;99926.97;5006524;28;19933;-81
2022/05/26 06:22:14;;;;;;;;;;;;;;;23.88;62.31;99923.03;5007151;28;19913;-80
2022/05/26 06:24:40;;;;;;;;;;;;;;;24.12;62.64;99920.53;5007244;28;19939;-80
2022/05/26 06:29:49;;;;;;;;;;;;;;;23.89;61.96;99922.06;5007518;28;19917;-81
2022/05/26 06:29:51;;;;;;;;;;;;;;;24.05;62.61;99920.09;5006982;28;19917;-81
2022/05/26 06:37:46;;;;;;;;;;;;;;;25.26;57.47;99900.91;5011059;28;19966;-81
2022/05/26 06:40:14;;;;;;;;;;;;;;;25.63;57.78;99904.47;5011084;28;19913;-80
2022/05/26 06:42:39;;;;;;;;;;;;;;;25.99;55.90;99905.41;5011074;28;19914;-81
2022/05/26 06:45:05;;;;;;;;;;;;;;;26.32;56.78;99902.94;5010207;28;20383;-81
2022/05/26 06:47:31;;;;;;;;;;;;;;;27.11;53.33;99903.91;5010778;28;20032;-81
2022/05/26 06:49:57;;;;;;;;;;;;;;;27.61;52.19;99900.75;5010607;28;20008;-81
2022/05/26 06:52:23;;;;;;;;;;;;;;;27.43;51.16;99905.84;5010603;28;19920;-80
2022/05/26 06:54:49;;;;;;;;;;;;;;;28.18;51.07;99900.59;5010531;28;19921;-81
2022/05/26 06:57:15;;;;;;;;;;;;;;;28.55;50.45;99894.69;5010650;28;19978;-81
2022/05/26 06:59:40;;;;;;;;;;;;;;;28.81;48.48;99892.44;5010391;28;19917;-81
2022/05/26 07:02:07;;;;;;;;;;;;;;;29.25;48.18;99887.59;5010629;28;20387;-81
2022/05/26 07:04:33;;;;;;;;;;;;;;;29.30;46.69;99884.47;4992734;28;20276;-80
2022/05/26 07:06:58;;;;;;;;;;;;;;;29.44;48.51;99883.22;5010331;28;19914;-80
2022/05/26 07:09:24;;;;;;;;;;;;;;;29.71;47.94;99884.41;5010717;28;19914;-82
2022/05/26 07:11:50;;;;;;;;;;;;;;;29.64;46.04;99882.25;5009703;28;19967;-80
2022/05/26 07:14:15;;;;;;;;;;;;;;;29.77;45.78;99887.41;5010247;28;19956;-80
2022/05/26 07:16:41;;;;;;;;;;;;;;;29.91;46.89;99880.72;5010035;28;19918;-80
2022/05/26 07:19:07;;;;;;;;;;;;;;;30.08;45.44;99881.00;5009181;28;19922;-80
2022/05/26 07:21:33;;;;;;;;;;;;;;;29.76;46.65;99887.56;5009515;28;20013;-79
2022/05/26 07:23:58;;;;;;;;;;;;;;;29.97;46.39;99885.59;5009540;28;19964;-79
2022/05/26 07:26:24;;;;;;;;;;;;;;;30.06;45.39;99889.31;5009809;28;19949;-80
2022/05/26 07:28:51;;;;;;;;;;;;;;;30.26;45.88;99890.16;5009900;28;19924;-80
2022/05/26 07:31:17;;;;;;;;;;;;;;;30.17;44.71;99891.03;5009412;28;20016;-80
2022/05/26 07:33:43;;;;;;;;;;;;;;;30.32;44.31;99886.84;5009681;28;20000;-80
2022/05/26 07:41:16;;;;;;;;;;;;;;;30.82;44.44;99888.44;4991848;28;20416;-80
2022/05/26 07:41:39;;;;;;;;;;;;;;;31.55;43.36;99890.41;5009770;28;19924;-80
2022/05/26 07:44:05;;;;;;;;;;;;;;;31.72;42.20;99901.50;5009265;28;19913;-81
2022/05/26 07:46:30;;;;;;;;;;;;;;;31.57;41.76;99888.41;5009500;28;20740;-80
2022/05/26 07:48:55;;;;;;;;;;;;;;;32.10;40.78;99891.28;5008757;28;19921;-80
2022/05/26 07:51:21;;;;;;;;;;;;;;;32.02;41.86;99894.78;5009259;28;20375;-80
2022/05/26 07:53:47;;;;;;;;;;;;;;;32.47;41.83;99909.31;5009114;28;19917;-80
2022/05/26 07:56:12;;;;;;;;;;;;;;;32.26;37.66;99902.34;5009911;28;19996;-80
2022/05/26 07:58:38;;;;;;;;;;;;;;;31.30;35.37;99894.72;5008420;28;19972;-81
2022/05/26 08:01:03;;;;;;;;;;;;;;;31.34;34.77;99893.41;5009169;28;20383;-80
2022/05/26 08:03:29;;;;;;;;;;;;;;;31.24;34.50;99896.16;5009096;28;20276;-80
2022/05/26 08:05:55;;;;;;;;;;;;;;;30.92;34.41;99896.56;5008499;28;19922;-80
2022/05/26 08:08:20;;;;;;;;;;;;;;;31.27;36.48;99897.75;5009064;28;19917;-80
2022/05/26 08:10:46;;;;;;;;;;;;;;;31.33;34.34;99896.28;5008584;28;19913;-81
2022/05/26 08:13:11;;;;;;;;;;;;;;;31.48;35.43;99894.75;5008722;28;20300;-81
2022/05/26 08:15:36;;;;;;;;;;;;;;;31.69;34.07;99901.81;5007997;28;19945;-80
2022/05/26 08:18:02;;;;;;;;;;;;;;;32.08;34.46;99898.75;5008450;28;19957;-81
2022/05/26 08:20:27;;;;;;;;;;;;;;;32.06;32.31;99896.19;5008777;28;19963;-81
2022/05/26 08:22:53;;;;;;;;;;;;;;;31.98;32.73;99900.69;5008796;28;19953;-80
2022/05/26 08:25:18;;;;;;;;;;;;;;;31.77;32.47;99905.44;5008786;28;19924;-80
2022/05/26 08:27:43;;;;;;;;;;;;;;;32.09;33.23;99897.75;5007818;28;20008;-81
2022/05/26 08:30:09;;;;;;;;;;;;;;;32.34;33.74;99897.97;5008752;28;19953;-81
2022/05/26 08:32:34;;;;;;;;;;;;;;;32.54;30.80;99899.47;5008423;28;19913;-80
2022/05/26 08:35:03;;;;;;;;;;;;;;;32.07;30.56;99894.31;5007075;28;19925;-80
2022/05/26 08:37:28;;;;;;;;;;;;;;;31.92;30.56;99903.06;5008607;28;19975;-80
2022/05/26 08:39:54;;;;;;;;;;;;;;;31.97;31.52;99894.41;5007236;28;19921;-80
2022/05/26 08:42:24;;;;;;;;;;;;;;;31.90;31.34;99894.19;5008490;28;20032;-80
2022/05/26 08:44:50;;;;;;;;;;;;;;;32.23;31.30;99888.19;5007802;28;20008;-80
2022/05/26 08:47:18;;;;;;;;;;;;;;;32.64;31.53;99885.72;5008299;28;20371;-81
2022/05/26 08:49:56;;;;;;;;;;;;;;;32.84;30.47;99886.38;5007491;28;19925;-80
2022/05/26 08:52:44;;;;;;;;;;;;;;;32.89;30.13;99878.56;5008404;28;19917;-80
2022/05/26 08:55:17;;;;;;;;;;;;;;;32.82;28.68;99888.41;5008818;28;19913;-81
2022/05/26 08:57:44;;;;;;;;;;;;;;;32.88;29.08;99882.31;5007171;28;20012;-81
2022/05/26 09:00:13;;;;;;;;;;;;;;;32.53;28.49;99880.53;5007959;28;20015;-81
2022/05/26 09:02:39;;;;;;;;;;;;;;;32.38;29.98;99893.91;5007836;28;20371;-81
2022/05/26 09:05:06;;;;;;;;;;;;;;;32.07;30.16;99894.31;5007132;28;19995;-80
2022/05/26 09:13:12;;;;;;;;;;;;;;;32.28;31.11;99888.53;5008053;28;19928;-81
2022/05/26 09:15:38;;;;;;;;;;;;;;;32.64;30.92;99888.44;4989944;28;19925;-80
2022/05/26 09:18:10;;;;;;;;;;;;;;;32.50;28.11;99889.88;5007776;28;19914;-79
2022/05/26 09:20:39;;;;;;;;;;;;;;;32.51;29.20;99879.84;5008170;28;19918;-79
2022/05/26 09:23:12;;;;;;;;;;;;;;;32.45;28.77;99892.25;5007030;28;19918;-80
2022/05/26 09:25:46;;;;;;;;;;;;;;;32.66;28.96;99881.84;5007966;28;19928;-80
2022/05/26 09:28:12;;;;;;;;;;;;;;;33.42;30.33;99881.19;5007562;28;19913;-81
2022/05/26 09:30:38;;;;;;;;;;;;;;;33.32;29.17;99882.19;4990220;28;19924;-80
2022/05/26 09:33:27;;;;;;;;;;;;;;;33.18;29.37;99874.56;4989758;28;20387;-82
2022/05/26 09:35:52;;;;;;;;;;;;;;;32.91;29.09;99881.13;4977293;28;19935;-81
2022/05/26 09:38:19;;;;;;;;;;;;;;;32.83;29.44;99881.94;5007937;28;19917;-80
2022/05/26 09:40:48;;;;;;;;;;;;;;;33.14;28.96;99890.44;5007790;28;19921;-80
2022/05/26 09:43:32;;;;;;;;;;;;;;;33.21;29.35;99885.19;5007673;28;19917;-80
2022/05/26 09:46:01;;;;;;;;;;;;;;;33.59;26.88;99884.81;5007183;28;19923;-79
2022/05/26 09:48:26;;;;;;;;;;;;;;;33.69;28.83;99885.50;5007144;28;19957;-80
2022/05/26 09:51:03;;;;;;;;;;;;;;;33.75;28.02;99882.13;5007398;28;19959;-81
2022/05/26 09:53:31;;;;;;;;;;;;;;;33.84;27.58;99872.06;5007974;28;19952;-80
2022/05/26 09:55:57;;;;;;;;;;;;;;;34.18;28.38;99873.75;4989876;28;20468;-81
2022/05/26 09:58:30;;;;;;;;;;;;;;;34.42;27.33;99879.25;5007580;28;20000;-81
2022/05/26 10:00:57;;;;;;;;;;;;;;;34.55;26.92;99862.25;5007110;28;19918;-80
2022/05/26 10:03:41;;;;;;;;;;;;;;;33.93;26.84;99868.28;5007117;28;20388;-80
2022/05/26 10:06:15;;;;;;;;;;;;;;;33.04;25.79;99865.13;5007357;28;20011;-81
2022/05/26 10:08:41;;;;;;;;;;;;;;;32.56;26.76;99861.94;5007347;28;19917;-81
2022/05/26 10:11:25;;;;;;;;;;;;;;;32.44;26.68;99868.69;5011326;28;19925;-81
2022/05/26 10:14:09;;;;;;;;;;;;;;;32.29;27.19;99865.72;5011045;28;19929;-81
2022/05/26 10:16:37;;;;;;;;;;;;;;;31.79;26.14;99872.56;5011406;28;19945;-80
2022/05/26 10:19:11;;;;;;;;;;;;;;;31.52;26.50;99873.50;5011145;28;19948;-80
2022/05/26 10:21:42;;;;;;;;;;;;;;;31.72;26.65;99874.22;5011431;28;19917;-81
2022/05/26 10:24:26;;;;;;;;;;;;;;;31.51;27.06;99872.66;4992409;28;20310;-81
2022/05/26 10:27:05;;;;;;;;;;;;;;;31.60;24.62;99873.59;5011086;28;19918;-81
2022/05/26 10:29:49;;;;;;;;;;;;;;;31.73;25.58;99859.56;5010535;28;19917;-80
2022/05/26 10:32:24;;;;;;;;;;;;;;;31.57;25.61;99860.28;5009929;28;19971;-81
2022/05/26 10:35:19;;;;;;;;;;;;;;;31.80;25.99;99851.63;4992737;28;20391;-81
2022/05/26 10:37:53;;;;;;;;;;;;;;;31.66;25.68;99851.16;5006729;28;19925;-80
2022/05/26 10:40:24;;;;;;;;;;;;;;;32.26;26.95;99849.66;5010107;28;20440;-81
2022/05/26 10:42:54;;;;;;;;;;;;;;;32.67;26.67;99839.00;5010843;28;19917;-80
2022/05/26 10:45:25;;;;;;;;;;;;;;;33.23;27.96;99844.91;5010400;28;19917;-80
2022/05/26 10:47:54;;;;;;;;;;;;;;;33.42;25.77;99841.03;5009183;28;20071;-81
2022/05/26 10:50:22;;;;;;;;;;;;;;;33.82;29.15;99828.44;4988857;28;20422;-81
2022/05/26 10:52:54;;;;;;;;;;;;;;;33.66;26.05;99828.41;5007126;28;20063;-81
2022/05/26 10:55:23;;;;;;;;;;;;;;;33.64;26.78;99827.72;5009884;28;19918;-80
2022/05/26 10:57:55;;;;;;;;;;;;;;;33.59;26.07;99830.97;5009406;28;20428;-80
2022/05/26 11:00:25;;;;;;;;;;;;;;;33.80;27.88;99832.38;5007445;28;19920;-82
2022/05/26 11:02:59;;;;;;;;;;;;;;;34.22;27.57;99828.59;5009393;28;19921;-81
2022/05/26 11:05:32;;;;;;;;;;;;;;;34.11;24.52;99823.47;5008669;28;19921;-81
2022/05/26 11:08:19;;;;;;;;;;;;;;;34.56;25.74;99819.31;5007168;28;20453;-82
2022/05/26 11:10:55;;;;;;;;;;;;;;;34.64;27.54;99823.94;5008928;28;19924;-82
2022/05/26 11:13:32;;;;;;;;;;;;;;;34.51;24.64;99811.63;4991437;28;20407;-82
2022/05/26 11:18:49;;;;;;;;;;;;;;;34.35;24.82;99807.03;5010052;28;20068;-81
2022/05/26 11:21:19;;;;;;;;;;;;;;;34.55;27.72;99806.66;5008578;28;19921;-82
2022/05/26 11:23:45;;;;;;;;;;;;;;;34.68;25.97;99806.97;4992210;28;20511;-81
2022/05/26 11:26:10;;;;;;;;;;;;;;;34.82;25.80;99801.78;5009715;28;19953;-81
2022/05/26 11:28:40;;;;;;;;;;;;;;;34.66;25.71;99810.91;5008628;28;19921;-80
2022/05/26 11:36:46;;;;;;;;;;;;;;;34.29;24.80;99801.41;5008720;28;19964;-81
2022/05/26 11:39:19;;;;;;;;;;;;;;;34.53;26.32;99797.78;5009806;28;20587;-81
2022/05/26 11:41:47;;;;;;;;;;;;;;;34.70;25.59;99788.47;5008562;28;19961;-81
2022/05/26 11:44:12;;;;;;;;;;;;;;;34.67;23.71;99787.97;5009268;28;19914;-81
2022/05/26 11:46:56;;;;;;;;;;;;;;;34.70;25.30;99788.47;5008761;28;20435;-80
2022/05/26 11:49:42;;;;;;;;;;;;;;;34.61;24.86;99787.63;5009032;28;19917;-81
2022/05/26 11:52:22;;;;;;;;;;;;;;;34.56;25.43;99784.56;4969131;28;20008;-79
2022/05/26 11:54:53;;;;;;;;;;;;;;;34.58;24.64;99779.75;5009161;28;19925;-81
2022/05/26 11:57:38;;;;;;;;;;;;;;;34.45;25.97;99774.00;5008554;28;19917;-81
2022/05/26 12:00:16;;;;;;;;;;;;;;;34.55;25.74;99768.31;5009545;28;19913;-81
2022/05/26 12:02:46;;;;;;;;;;;;;;;34.65;24.31;99777.19;5008964;28;20379;-80
2022/05/26 12:05:29;;;;;;;;;;;;;;;34.28;26.25;99770.47;5008479;28;19964;-81
2022/05/26 12:07:56;;;;;;;;;;;;;;;34.25;24.76;99765.34;5009170;28;19967;-82
2022/05/26 12:10:24;;;;;;;;;;;;;;;34.32;24.41;99768.22;5008668;28;19980;-81
2022/05/26 12:12:49;;;;;;;;;;;;;;;34.44;25.05;99758.59;5009255;28;20421;-80
2022/05/26 12:15:14;;;;;;;;;;;;;;;34.32;24.97;99752.66;5008456;28;19917;-81
2022/05/26 12:17:45;;;;;;;;;;;;;;;34.52;25.07;99747.59;5009036;28;19975;-81
2022/05/26 12:20:11;;;;;;;;;;;;;;;34.89;24.26;99745.25;4991110;28;19996;-81
2022/05/26 12:22:54;;;;;;;;;;;;;;;35.01;23.94;99759.41;5008521;28;20024;-81
2022/05/26 12:25:32;;;;;;;;;;;;;;;34.58;23.92;99741.41;5008735;28;20537;-81
2022/05/26 12:28:03;;;;;;;;;;;;;;;34.60;24.20;99739.38;5008004;28;19921;-82
2022/05/26 12:30:30;;;;;;;;;;;;;;;34.82;24.28;99741.50;5008939;28;19913;-82
2022/05/26 12:32:56;;;;;;;;;;;;;;;34.91;23.72;99743.19;4989543;28;20063;-80
2022/05/26 12:35:30;;;;;;;;;;;;;;;34.89;23.05;99742.50;5008646;28;20043;-81
2022/05/26 12:37:56;;;;;;;;;;;;;;;34.84;24.57;99740.31;5007869;28;19921;-81
2022/05/26 12:40:33;;;;;;;;;;;;;;;35.20;24.38;99736.16;5008638;28;19917;-82
2022/05/26 12:43:05;;;;;;;;;;;;;;;35.13;23.58;99734.13;5008100;28;19917;-80
2022/05/26 12:45:45;;;;;;;;;;;;;;;35.15;23.97;99733.97;5007838;28;19928;-81
2022/05/26 12:48:11;;;;;;;;;;;;;;;35.50;23.35;99743.50;5008327;28;19913;-81
2022/05/26 12:50:39;;;;;;;;;;;;;;;35.20;23.53;99745.22;5008156;28;20310;-81
2022/05/26 12:53:22;;;;;;;;;;;;;;;34.99;24.46;99755.97;5008245;28;19921;-81
2022/05/26 12:56:02;;;;;;;;;;;;;;;35.01;23.26;99752.03;5008893;28;19922;-82
2022/05/26 12:58:31;;;;;;;;;;;;;;;34.97;23.28;99753.41;5008086;28;20319;-80
2022/05/26 13:00:56;;;;;;;;;;;;;;;35.30;23.23;99742.28;5007899;28;19967;-80
2022/05/26 13:03:38;;;;;;;;;;;;;;;34.96;23.76;99754.47;5007703;28;19964;-81
2022/05/26 13:06:09;;;;;;;;;;;;;;;35.16;24.50;99752.13;5007489;28;19929;-81
2022/05/26 13:08:47;;;;;;;;;;;;;;;34.98;23.65;99760.63;5008285;28;19921;-82
2022/05/26 13:11:15;;;;;;;;;;;;;;;34.71;23.75;99767.38;5007867;28;20012;-81
2022/05/26 13:13:42;;;;;;;;;;;;;;;34.27;24.18;99759.69;4990253;28;19924;-81
2022/05/26 13:16:23;;;;;;;;;;;;;;;34.10;24.29;99767.06;5007984;28;19917;-81
2022/05/26 13:18:48;;;;;;;;;;;;;;;34.17;24.91;99776.25;5007882;28;19991;-80
2022/05/26 13:21:14;;;;;;;;;;;;;;;33.98;26.16;99772.03;5007453;28;20009;-79
2022/05/26 13:23:40;;;;;;;;;;;;;;;33.59;25.88;99765.34;5007844;28;19964;-79
2022/05/26 13:26:05;;;;;;;;;;;;;;;33.69;26.24;99778.84;5007979;28;20415;-79